Hawaii METAR Reports

 

PHOG - Kahului, Hawaii, USA
Distance from station: WNW 8mi, 13km
Updated: Thu, 05-Aug-2021 8:00am HST
unable to load PHOG data RC=
unable to load PHOG data RC=
 
PHJH - Lahaina/West Mau, Hawaii, USA
Distance from station: WNW 24mi, 39km
Updated: Thu, 05-Aug-2021 7:45am HST
Clear
Clear
 Wind from ENE
Wind: ENE 12 mph , 19 km/h, Gust: 21 mph , 33 km/h
Clouds: Clear
Visibility: 10 miles , 16 km
2021/08/05 17:45 PHJH 051745Z 06010G18KT 10SM CLR BLW 120 26/18 A3009
 
PHNY - Lanai City Airpo, Hawaii, USA
Distance from station: W 40mi, 65km
Updated: Thu, 05-Aug-2021 8:00am HST
unable to load PHNY data RC=
unable to load PHNY data RC=
 
PHMK - Molokai, Hawaii, USA
Distance from station: WNW 55mi, 88km
Updated: Thu, 05-Aug-2021 7:54am HST
Partly Cloudy
Partly Cloudy
 Wind from NE
Wind: NE 9 mph , 15 km/h, Gust: 18 mph , 30 km/h
Temperature: 79°F , 26°C
Dew Point: 66°F , 19°C
Humidity: 65%
Barometer: 30.11 inHg , 1019.6 hPa
Clouds: Partly Cloudy
Visibility: 10 miles , 16 km
Cloud details: Few Clouds 1500 ft
Partly Cloudy 2100 ft
Partly Cloudy 5500 ft
2021/08/05 17:54 PHMK 051754Z 04008G16KT 10SM FEW015 SCT021 SCT055 26/19 A3011 RMK AO2 SLP198 T02560189 10256 20222 53011
 
PHKO - Kailua/Kona, Hawaii, USA
Distance from station: SSE 79mi, 128km
Updated: Thu, 05-Aug-2021 7:53am HST
Mostly Cloudy
Mostly Cloudy
 Wind from ENE
Wind: ENE 8 mph , 13 km/h
Temperature: 77°F , 25°C
Dew Point: 66°F , 19°C
Humidity: 69%
Barometer: 30.06 inHg , 1017.9 hPa
Clouds: Mostly Cloudy
Visibility: 10 miles , 16 km
Cloud details: Mostly Cloudy 5500 ft
2021/08/05 17:53 PHKO 051753Z 06007KT 10SM BKN055 25/19 A3006 RMK AO2 RAE46 SLP177 P0000 60001 T02500194 10250 20228 51015
PHSF - Bradshaw Aaf/Haw, Hawaii, USA
Distance from station: SE 90mi, 145km
Updated: Thu, 05-Aug-2021 6:58am HST
Clear
Clear
 Wind from E
Wind: E 8 mph , 13 km/h
Temperature: 50°F , 10°C
Wind Chill: 47°F , 8°C
Dew Point: 46°F , 8°C
Humidity: 88%
Barometer: 30.39 inHg , 1029.1 hPa
Clouds: Clear
Visibility: 10 miles , 16 km
2021/08/05 16:58 PHSF 051658Z AUTO 09007KT 10SM CLR 10/08 A3039 RMK AO2 SLP191 T01030076 TSNO $
 
PHNG - Kaneohe Mcas, Hawaii, USA
Distance from station: WNW 102mi, 164km
Updated: Thu, 05-Aug-2021 7:57am HST
Mostly Cloudy
Mostly Cloudy
 Wind from ENE
Wind: ENE 12 mph , 19 km/h, Gust: 18 mph , 30 km/h
Temperature: 79°F , 26°C
Dew Point: 66°F , 19°C
Humidity: 65%
Barometer: 30.09 inHg , 1019 hPa
Clouds: Mostly Cloudy
Visibility: 10 miles , 16 km
Cloud details: Few Clouds 3000 ft
Mostly Cloudy 4500 ft
2021/08/05 17:57 PHNG 051757Z 07010G16KT 10SM FEW030 BKN045 26/19 A3009 RMK AO2 SLP185 T02560189 10261 20239 51014
PHNL - Honolulu, Hawaii, USA
Distance from station: WNW 108mi, 174km
Updated: Thu, 05-Aug-2021 7:53am HST
Light rain, Mostly cloudy
Light rain, Mostly cloudy
 Wind from ENE
Wind: ENE 15 mph , 24 km/h
Temperature: 79°F , 26°C
Dew Point: 66°F , 19°C
Humidity: 65%
Barometer: 30.11 inHg , 1019.6 hPa
Summary: Light Rain
Clouds: Mostly Cloudy
Visibility: 10 miles , 16 km
Cloud details: Few Clouds 2500 ft
Partly Cloudy 3500 ft
Mostly Cloudy 7500 ft
2021/08/05 17:53 PHNL 051753Z 07013KT 10SM -RA FEW025 SCT035 BKN075 26/19 A3011 RMK AO2 RAB44 SLP194 P0000 60000 T02560189 10256 20233 53015
 
PHTO - Hilo, Hawaii, USA
Distance from station: SE 114mi, 183km
Updated: Thu, 05-Aug-2021 7:53am HST
Overcast
Overcast
 Wind from W
Wind: W 3 mph , 6 km/h
Temperature: 73°F , 23°C
Dew Point: 64°F , 18°C
Humidity: 74%
Barometer: 30.12 inHg , 1020 hPa
Clouds: Overcast
Visibility: 10 miles , 16 km
Cloud details: Few Clouds 4000 ft
Mostly Cloudy 4900 ft
Overcast 6500 ft
2021/08/05 17:53 PHTO 051753Z 26003KT 10SM FEW040 BKN049 OVC065 23/18 A3012 RMK AO2 SLP197 60001 T02280183 10228 20211 53015
PHJR - Kalaeloa, Hawaii, USA
Distance from station: WNW 117mi, 189km
Updated: Thu, 05-Aug-2021 7:53am HST
Overcast
Overcast
 Wind from NE
Wind: NE 7 mph , 11 km/h
Temperature: 81°F , 27°C
Heat Index: 83°F , 28°C
Dew Point: 64°F , 18°C
Humidity: 58%
Barometer: 30.12 inHg , 1020 hPa
Clouds: Overcast
Visibility: 10 miles , 16 km
Cloud details: Few Clouds 6000 ft
Overcast 8000 ft
2021/08/05 17:53 PHJR 051753Z 04006KT 10SM FEW060 OVC080 27/18 A3012 RMK AO2 SLP205 T02720183 10272 20239 51014
 
PHHI - Wheeler Afb/Oahu, Hawaii, USA
Distance from station: WNW 120mi, 193km
Updated: Thu, 05-Aug-2021 7:56am HST
Overcast
Overcast
 Wind from SW
Wind: SW 5 mph , 7 km/h
Temperature: 72°F , 22°C
Dew Point: 66°F , 19°C
Humidity: 83%
Barometer: 30.14 inHg , 1020.7 hPa
Clouds: Overcast
Visibility: 10 miles , 16 km
Cloud details: Mostly Cloudy 2500 ft
Overcast 3200 ft
2021/08/05 17:56 PHHI 051756Z AUTO 23004KT 10SM BKN025 OVC032 22/19 A3014 RMK AO2 DZE00DZB00E00RAB08E19RAB19E19DZB37E43DZB43E43 SLP197 P0000 60000 T02190187 10220 20206 53014 $
PHLI - Lihue/Kauai Is, Hawaii, USA
Distance from station: WNW 209mi, 336km
Updated: Thu, 05-Aug-2021 7:53am HST
Few Clouds
Few Clouds
 Wind from ENE
Wind: ENE 18 mph , 30 km/h
Temperature: 81°F , 27°C
Heat Index: 84°F , 29°C
Dew Point: 68°F , 20°C
Humidity: 66%
Barometer: 30.13 inHg , 1020.3 hPa
Clouds: Few Clouds
Visibility: 10 miles , 16 km
Cloud details: Few Clouds 2900 ft
2021/08/05 17:53 PHLI 051753Z 07016KT 10SM FEW029 27/20 A3013 RMK AO2 SLP201 T02720200 10272 20261 53012
 
PHBK - Barking Sands/Ka, Hawaii, USA
Distance from station: WNW 237mi, 382km
Updated: Thu, 05-Aug-2021 7:51am HST
Clear
Clear
 Wind from N
Wind: N 5 mph , 7 km/h
Temperature: 81°F , 27°C
Heat Index: 83°F , 28°C
Dew Point: 64°F , 18°C
Humidity: 58%
Barometer: 30.10 inHg , 1019.3 hPa
Clouds: Clear
Visibility: 10 miles , 16 km
2021/08/05 17:51 PHBK 051751Z AUTO 01004KT 10SM CLR 27/18 A3010 RMK AO2 SLP196 T02670183 10267 20217 53014